createdAt,value
2023-04-06T00:00:34.924Z,5.36
2023-04-06T00:01:34.990Z,5.43
2023-04-06T00:02:35.079Z,5.07
2023-04-06T00:03:35.118Z,5.27
2023-04-06T00:04:35.057Z,5.28
2023-04-06T00:05:35.089Z,5.29
2023-04-06T00:06:35.151Z,5.22
2023-04-06T00:07:35.196Z,5.02
2023-04-06T00:08:35.164Z,5.40
2023-04-06T00:09:35.209Z,5.60
2023-04-06T00:10:35.229Z,5.62
2023-04-06T00:11:35.290Z,5.19
2023-04-06T00:12:35.308Z,5.92
2023-04-06T00:13:35.332Z,5.57
2023-04-06T00:14:35.382Z,5.26
2023-04-06T00:15:35.416Z,4.63
2023-04-06T00:16:35.495Z,5.62
2023-04-06T00:17:35.540Z,5.26
2023-04-06T00:18:35.485Z,5.44
2023-04-06T00:19:35.509Z,5.57
2023-04-06T00:20:35.529Z,5.33
2023-04-06T00:21:35.595Z,5.47
2023-04-06T00:22:35.604Z,5.29
2023-04-06T00:23:35.662Z,5.50
2023-04-06T00:24:35.758Z,4.88
2023-04-06T00:25:35.761Z,5.54
2023-04-06T00:26:35.785Z,4.68
2023-04-06T00:27:35.756Z,5.39
2023-04-06T00:28:35.814Z,5.22
2023-04-06T00:29:35.820Z,5.84
2023-04-06T00:30:35.862Z,5.34
2023-04-06T00:31:35.888Z,5.30
2023-04-06T00:32:35.969Z,5.84
2023-04-06T00:33:35.938Z,5.71
2023-04-06T00:34:35.978Z,6.01
2023-04-06T00:35:35.978Z,5.28
2023-04-06T00:36:36.035Z,5.57
2023-04-06T00:37:36.047Z,5.39
2023-04-06T00:38:36.101Z,5.44
2023-04-06T00:39:36.129Z,5.86
2023-04-06T00:40:36.142Z,5.49
2023-04-06T00:41:36.173Z,5.38
2023-04-06T00:42:36.194Z,5.58
2023-04-06T00:43:36.220Z,4.83
2023-04-06T00:44:36.278Z,5.39
2023-04-06T00:45:36.280Z,4.91
2023-04-06T00:46:36.523Z,5.36
2023-04-06T00:47:36.363Z,5.60
2023-04-06T00:48:36.356Z,5.55
2023-04-06T00:49:36.397Z,5.31
2023-04-06T00:50:36.428Z,5.67
2023-04-06T00:51:36.465Z,6.16
2023-04-06T00:52:36.484Z,5.69
2023-04-06T00:53:36.537Z,5.94
2023-04-06T00:54:36.551Z,5.28
2023-04-06T00:55:36.575Z,4.46
2023-04-06T00:56:36.629Z,5.26
2023-04-06T00:57:36.657Z,5.34
2023-04-06T00:58:36.669Z,5.26
2023-04-06T00:59:36.853Z,5.43
2023-04-06T01:00:36.740Z,5.93
2023-04-06T01:01:36.823Z,5.06
2023-04-06T01:02:36.832Z,5.50
2023-04-06T01:03:36.886Z,5.39
2023-04-06T01:04:36.878Z,5.98
2023-04-06T01:05:36.942Z,5.62
2023-04-06T01:06:36.937Z,5.19
2023-04-06T01:07:36.967Z,5.04
2023-04-06T01:08:37.027Z,5.76
2023-04-06T01:09:37.046Z,5.82
2023-04-06T01:10:37.093Z,5.16
2023-04-06T01:11:37.128Z,5.40
2023-04-06T01:12:37.188Z,4.91
2023-04-06T01:13:37.185Z,5.23
2023-04-06T01:14:37.218Z,5.21
2023-04-06T01:15:37.315Z,5.51
2023-04-06T01:16:37.297Z,5.08
2023-04-06T01:17:37.348Z,5.39
2023-04-06T01:18:37.382Z,5.36
2023-04-06T01:19:37.405Z,5.49
2023-04-06T01:20:37.427Z,5.85
2023-04-06T01:21:37.442Z,5.78
2023-04-06T01:22:37.480Z,5.22
2023-04-06T01:23:37.542Z,4.92
2023-04-06T01:24:37.593Z,5.63
2023-04-06T01:25:37.622Z,5.45
2023-04-06T01:26:37.611Z,6.12
2023-04-06T01:27:37.662Z,6.11
2023-04-06T01:28:37.723Z,6.21
2023-04-06T01:29:37.760Z,5.50
2023-04-06T01:30:37.749Z,5.37
2023-04-06T01:31:37.843Z,4.59
2023-04-06T01:32:37.833Z,5.37
2023-04-06T01:33:37.865Z,5.71
2023-04-06T01:34:37.873Z,5.65
2023-04-06T01:35:38.053Z,5.43
2023-04-06T01:36:38.030Z,5.38
2023-04-06T01:37:38.010Z,5.10
2023-04-06T01:38:38.070Z,5.74
2023-04-06T01:39:38.105Z,5.21
2023-04-06T01:40:38.125Z,6.04
2023-04-06T01:41:38.160Z,5.48
2023-04-06T01:42:38.202Z,5.37
2023-04-06T01:43:38.222Z,5.94
2023-04-06T01:44:38.265Z,6.14
2023-04-06T01:45:38.285Z,5.49
2023-04-06T01:46:38.312Z,5.68
2023-04-06T01:47:38.416Z,5.97
2023-04-06T01:48:38.389Z,5.64
2023-04-06T01:49:38.422Z,4.93
2023-04-06T01:50:38.479Z,5.87
2023-04-06T01:51:38.488Z,5.45
2023-04-06T01:52:38.539Z,4.84
2023-04-06T01:53:38.552Z,5.48
2023-04-06T01:54:38.648Z,5.14
2023-04-06T01:55:38.658Z,6.12
2023-04-06T01:56:38.678Z,6.05
2023-04-06T01:57:38.715Z,5.69
2023-04-06T01:58:38.729Z,5.27
2023-04-06T01:59:38.849Z,5.20
2023-04-06T02:00:38.844Z,5.70
2023-04-06T02:01:38.863Z,5.88
2023-04-06T02:02:39.010Z,5.21
2023-04-06T02:03:38.913Z,5.15
2023-04-06T02:04:38.984Z,5.72
2023-04-06T02:05:39.000Z,5.85
2023-04-06T02:06:39.023Z,5.61
2023-04-06T02:07:39.084Z,6.11
2023-04-06T02:08:39.152Z,5.95
2023-04-06T02:09:39.152Z,5.75
2023-04-06T02:10:39.216Z,5.52
2023-04-06T02:11:39.212Z,4.81
2023-04-06T02:12:39.267Z,5.31
2023-04-06T02:13:39.269Z,5.55
2023-04-06T02:14:39.313Z,5.42
2023-04-06T02:15:39.364Z,5.35
2023-04-06T02:16:39.456Z,5.44
2023-04-06T02:17:39.499Z,6.25
2023-04-06T02:18:39.452Z,5.54
2023-04-06T02:19:39.473Z,5.19
2023-04-06T02:20:39.515Z,5.33
2023-04-06T02:21:39.566Z,5.66
2023-04-06T02:22:39.588Z,4.79
2023-04-06T02:23:39.659Z,5.79
2023-04-06T02:24:39.677Z,5.31
2023-04-06T02:25:39.685Z,5.41
2023-04-06T02:26:39.737Z,5.66
2023-04-06T02:27:39.761Z,5.06
2023-04-06T02:28:39.767Z,5.73
2023-04-06T02:29:39.837Z,5.03
2023-04-06T02:30:39.860Z,5.03
2023-04-06T02:31:39.957Z,4.67
2023-04-06T02:32:40.042Z,5.95
2023-04-06T02:33:39.961Z,5.23
2023-04-06T02:34:40.014Z,5.57
2023-04-06T02:35:40.095Z,5.05
2023-04-06T02:36:40.041Z,5.15
2023-04-06T02:37:40.033Z,5.88
2023-04-06T02:38:40.044Z,5.41
2023-04-06T02:39:40.067Z,5.51
2023-04-06T02:40:40.074Z,5.72
2023-04-06T02:41:40.120Z,5.28
2023-04-06T02:42:40.107Z,5.93
2023-04-06T02:43:40.160Z,5.06
2023-04-06T02:44:40.227Z,5.47
2023-04-06T02:45:40.413Z,4.63
2023-04-06T02:46:40.316Z,6.41
2023-04-06T02:47:41.258Z,5.69
2023-04-06T02:48:40.418Z,5.63
2023-04-06T02:49:40.409Z,5.56
2023-04-06T02:50:40.445Z,5.02
2023-04-06T02:51:40.471Z,5.18
2023-04-06T02:52:40.531Z,5.69
2023-04-06T02:53:40.543Z,5.06
2023-04-06T02:54:40.593Z,5.56
2023-04-06T02:55:40.648Z,4.89
2023-04-06T02:56:40.651Z,5.39
2023-04-06T02:57:40.722Z,5.63
2023-04-06T02:58:40.780Z,5.80
2023-04-06T02:59:40.920Z,5.66
2023-04-06T03:00:40.832Z,5.63
2023-04-06T03:01:40.887Z,5.81
2023-04-06T03:02:41.047Z,5.28
2023-04-06T03:03:40.987Z,5.37
2023-04-06T03:04:40.979Z,5.12
2023-04-06T03:05:41.031Z,5.75
2023-04-06T03:06:41.139Z,5.39
2023-04-06T03:07:41.128Z,5.82
2023-04-06T03:08:41.191Z,5.28
2023-04-06T03:09:41.226Z,4.96
2023-04-06T03:10:41.276Z,5.17
2023-04-06T03:11:41.272Z,5.50
2023-04-06T03:12:41.324Z,5.31
2023-04-06T03:13:41.359Z,4.87
2023-04-06T03:14:41.432Z,5.36
2023-04-06T03:15:41.506Z,5.07
2023-04-06T03:16:41.504Z,5.45
2023-04-06T03:17:41.522Z,5.82
2023-04-06T03:18:41.579Z,5.34
2023-04-06T03:19:41.644Z,5.59
2023-04-06T03:20:41.666Z,4.74
2023-04-06T03:21:41.740Z,5.31
2023-04-06T03:22:41.754Z,5.44
2023-04-06T03:23:41.819Z,5.38
2023-04-06T03:24:41.853Z,5.54
2023-04-06T03:25:41.881Z,5.04
2023-04-06T03:26:41.935Z,4.95
2023-04-06T03:27:41.957Z,5.62
2023-04-06T03:28:42.021Z,5.49
2023-04-06T03:29:42.059Z,5.49
2023-04-06T03:30:42.095Z,5.12
2023-04-06T03:31:42.217Z,5.50
2023-04-06T03:32:42.243Z,4.90
2023-04-06T03:33:42.224Z,5.20
2023-04-06T03:34:42.263Z,5.67
2023-04-06T03:35:42.329Z,6.07
2023-04-06T03:36:42.382Z,5.52
2023-04-06T03:37:42.417Z,5.06
2023-04-06T03:38:42.448Z,5.55
2023-04-06T03:39:42.496Z,5.26
2023-04-06T03:40:42.518Z,5.51
2023-04-06T03:41:42.577Z,5.67
2023-04-06T03:42:42.616Z,5.68
2023-04-06T03:43:42.660Z,5.26
2023-04-06T03:44:42.722Z,5.18
2023-04-06T03:45:42.758Z,5.61
2023-04-06T03:46:42.842Z,5.50
2023-04-06T03:47:42.838Z,5.45
2023-04-06T03:48:42.867Z,5.75
2023-04-06T03:49:42.872Z,5.26
2023-04-06T03:50:42.929Z,5.79
2023-04-06T03:51:43.033Z,5.72
2023-04-06T03:52:43.015Z,6.11
2023-04-06T03:53:43.036Z,5.12
2023-04-06T03:54:43.091Z,6.07
2023-04-06T03:55:43.120Z,5.33
2023-04-06T03:56:43.156Z,5.71
2023-04-06T03:57:43.184Z,5.98
2023-04-06T03:58:43.240Z,5.73
2023-04-06T03:59:43.387Z,5.58
2023-04-06T04:00:43.293Z,6.41
2023-04-06T04:01:43.409Z,5.94
2023-04-06T04:02:43.357Z,5.58
2023-04-06T04:03:43.460Z,5.08
2023-04-06T04:04:43.433Z,6.00
2023-04-06T04:05:43.422Z,5.98
2023-04-06T04:06:43.482Z,6.04
2023-04-06T04:07:43.542Z,5.83
2023-04-06T04:08:43.565Z,6.16
2023-04-06T04:09:43.622Z,5.61
2023-04-06T04:10:43.623Z,5.58
2023-04-06T04:11:43.682Z,5.52
2023-04-06T04:12:43.751Z,5.17
2023-04-06T04:13:43.791Z,5.66
2023-04-06T04:14:43.803Z,5.80
2023-04-06T04:15:43.878Z,6.57
2023-04-06T04:16:43.938Z,5.32
2023-04-06T04:17:44.456Z,6.07
2023-04-06T04:18:43.992Z,6.26
2023-04-06T04:19:44.008Z,5.30
2023-04-06T04:20:44.100Z,5.64
2023-04-06T04:21:44.119Z,5.51
2023-04-06T04:22:44.139Z,6.00
2023-04-06T04:23:44.241Z,5.71
2023-04-06T04:24:44.244Z,5.94
2023-04-06T04:25:44.258Z,5.57
2023-04-06T04:26:44.278Z,5.92
2023-04-06T04:27:44.342Z,5.97
2023-04-06T04:28:44.398Z,5.46
2023-04-06T04:29:44.434Z,5.75
2023-04-06T04:30:44.498Z,5.74
2023-04-06T04:31:44.533Z,5.75
2023-04-06T04:32:44.547Z,5.92
2023-04-06T04:33:44.569Z,5.38
2023-04-06T04:34:44.614Z,5.34
2023-04-06T04:35:44.735Z,5.85
2023-04-06T04:36:44.700Z,5.92
2023-04-06T04:37:44.744Z,5.70
2023-04-06T04:38:44.783Z,6.10
2023-04-06T04:39:44.832Z,5.44
2023-04-06T04:40:44.877Z,5.69
2023-04-06T04:41:44.879Z,6.13
2023-04-06T04:42:44.946Z,5.91
2023-04-06T04:43:44.916Z,6.10
2023-04-06T04:44:44.983Z,6.28
2023-04-06T04:45:45.005Z,5.72
2023-04-06T04:46:45.015Z,6.12
2023-04-06T04:47:45.058Z,5.50
2023-04-06T04:48:45.063Z,5.96
2023-04-06T04:49:45.073Z,5.54
2023-04-06T04:50:45.102Z,5.65
2023-04-06T04:51:45.149Z,5.89
2023-04-06T04:52:45.129Z,5.61
2023-04-06T04:53:45.172Z,5.66
2023-04-06T04:54:45.195Z,5.86
2023-04-06T04:55:45.206Z,5.83
2023-04-06T04:56:45.227Z,6.09
2023-04-06T04:57:45.246Z,6.08
2023-04-06T04:58:45.292Z,5.83
2023-04-06T04:59:45.286Z,6.24
2023-04-06T05:00:56.834Z,5.42
2023-04-06T05:01:54.878Z,5.93
2023-04-06T05:02:46.558Z,5.99
2023-04-06T05:03:45.621Z,5.57
2023-04-06T05:04:45.419Z,5.71
2023-04-06T05:05:45.431Z,6.60
2023-04-06T05:06:45.420Z,5.46
2023-04-06T05:07:45.380Z,6.20
2023-04-06T05:08:45.414Z,5.88
2023-04-06T05:09:45.396Z,5.74
2023-04-06T05:10:45.416Z,6.03
2023-04-06T05:11:45.422Z,5.83
2023-04-06T05:12:45.462Z,6.43
2023-04-06T05:13:45.361Z,5.82
2023-04-06T05:14:45.384Z,5.86
2023-04-06T05:15:45.479Z,6.08
2023-04-06T05:16:45.345Z,5.44
2023-04-06T05:17:45.381Z,6.02
2023-04-06T05:18:45.363Z,5.51
2023-04-06T05:19:45.334Z,6.57
2023-04-06T05:20:45.369Z,6.02
2023-04-06T05:21:45.370Z,6.47
2023-04-06T05:22:45.324Z,6.29
2023-04-06T05:23:45.304Z,5.72
2023-04-06T05:24:45.316Z,5.90
2023-04-06T05:25:45.476Z,6.15
2023-04-06T05:26:45.314Z,5.11
2023-04-06T05:27:45.281Z,6.09
2023-04-06T05:28:45.296Z,6.25
2023-04-06T05:29:45.336Z,6.38
2023-04-06T05:30:45.376Z,6.27
2023-04-06T05:31:45.364Z,6.62
2023-04-06T05:32:45.398Z,6.02
2023-04-06T05:33:45.289Z,5.80
2023-04-06T05:34:45.313Z,6.52
2023-04-06T05:35:45.341Z,5.96
2023-04-06T05:36:45.329Z,6.11
2023-04-06T05:37:45.314Z,6.34
2023-04-06T05:38:45.294Z,6.20
2023-04-06T05:39:45.311Z,6.13
2023-04-06T05:40:45.297Z,5.89
2023-04-06T05:41:45.311Z,6.17
2023-04-06T05:42:45.334Z,5.90
2023-04-06T05:43:45.338Z,6.59
2023-04-06T05:44:45.324Z,5.89
2023-04-06T05:45:45.393Z,6.40
2023-04-06T05:46:52.462Z,6.46
2023-04-06T05:47:45.373Z,5.75
2023-04-06T05:48:45.342Z,6.74
2023-04-06T05:49:45.331Z,6.25
2023-04-06T05:50:45.348Z,5.93
2023-04-06T05:51:45.329Z,6.31
2023-04-06T05:52:45.323Z,6.19
2023-04-06T05:53:45.279Z,6.53
2023-04-06T05:54:45.312Z,6.57
2023-04-06T05:55:45.287Z,6.01
2023-04-06T05:56:45.283Z,6.61
2023-04-06T05:57:45.287Z,6.28
2023-04-06T05:58:45.288Z,5.38
2023-04-06T05:59:45.312Z,6.35
2023-04-06T06:00:45.261Z,5.65
2023-04-06T06:01:45.260Z,6.37
2023-04-06T06:02:45.263Z,6.43
2023-04-06T06:03:45.246Z,6.24
2023-04-06T06:04:45.240Z,5.93
2023-04-06T06:05:45.189Z,5.92
2023-04-06T06:06:45.203Z,6.24
2023-04-06T06:07:45.180Z,6.96
2023-04-06T06:08:45.170Z,5.72
2023-04-06T06:09:45.170Z,6.38
2023-04-06T06:10:45.174Z,5.55
2023-04-06T06:11:45.174Z,5.82
2023-04-06T06:12:45.171Z,6.33
2023-04-06T06:13:45.158Z,6.21
2023-04-06T06:14:45.158Z,5.90
2023-04-06T06:15:45.144Z,6.07
2023-04-06T06:16:45.213Z,6.46
2023-04-06T06:17:45.161Z,5.95
2023-04-06T06:18:45.253Z,6.18
2023-04-06T06:19:45.090Z,5.98
2023-04-06T06:20:45.106Z,5.85
2023-04-06T06:21:45.094Z,5.73
2023-04-06T06:22:45.108Z,5.94
2023-04-06T06:23:45.076Z,6.56
2023-04-06T06:24:45.111Z,6.31
2023-04-06T06:25:45.085Z,6.37
2023-04-06T06:26:45.085Z,6.15
2023-04-06T06:27:45.054Z,5.43
2023-04-06T06:28:45.101Z,6.19
2023-04-06T06:29:45.058Z,5.57
2023-04-06T06:30:45.031Z,6.09
2023-04-06T06:31:45.107Z,5.50
2023-04-06T06:32:45.100Z,6.33
2023-04-06T06:33:45.022Z,6.32
2023-04-06T06:34:45.025Z,5.77
2023-04-06T06:35:45.097Z,6.35
2023-04-06T06:36:47.142Z,5.70
2023-04-06T06:37:45.156Z,5.61
2023-04-06T06:38:45.175Z,5.74
2023-04-06T06:39:45.166Z,5.90
2023-04-06T06:40:45.146Z,6.22
2023-04-06T06:41:45.100Z,6.51
2023-04-06T06:42:45.115Z,6.19
2023-04-06T06:43:45.095Z,6.32
2023-04-06T06:44:45.126Z,6.17
2023-04-06T06:45:45.129Z,6.27
2023-04-06T06:46:45.115Z,6.34
2023-04-06T06:47:45.155Z,6.26
2023-04-06T06:48:45.072Z,6.39
2023-04-06T06:49:45.164Z,6.23
2023-04-06T06:50:45.038Z,5.99
2023-04-06T06:51:45.111Z,6.02
2023-04-06T06:52:45.073Z,7.14
2023-04-06T06:53:45.023Z,5.47
2023-04-06T06:54:44.996Z,6.38
2023-04-06T06:55:44.989Z,6.05
2023-04-06T06:56:45.031Z,6.84
2023-04-06T06:57:45.012Z,6.24
2023-04-06T06:58:45.006Z,6.57
2023-04-06T06:59:44.970Z,6.67
2023-04-06T07:00:44.995Z,6.08
2023-04-06T07:01:44.988Z,6.42
2023-04-06T07:02:45.028Z,5.23
2023-04-06T07:03:45.487Z,6.31
2023-04-06T07:04:45.035Z,6.61
2023-04-06T07:05:44.927Z,6.28
2023-04-06T07:06:44.974Z,6.61
2023-04-06T07:07:45.008Z,6.05
2023-04-06T07:08:44.960Z,6.26
2023-04-06T07:09:44.939Z,6.54
2023-04-06T07:10:44.911Z,6.66
2023-04-06T07:11:44.918Z,6.81
2023-04-06T07:12:44.906Z,6.27
2023-04-06T07:13:44.880Z,6.43
2023-04-06T07:14:44.900Z,6.61
2023-04-06T07:15:44.879Z,6.62
2023-04-06T07:16:44.910Z,5.81
2023-04-06T07:17:44.891Z,5.89
2023-04-06T07:18:44.932Z,5.99
2023-04-06T07:19:45.047Z,6.26
2023-04-06T07:20:44.958Z,6.09
2023-04-06T07:21:44.952Z,5.97
2023-04-06T07:22:45.011Z,6.36
2023-04-06T07:23:44.987Z,6.95
2023-04-06T07:24:44.967Z,6.95
2023-04-06T07:25:44.988Z,6.04
2023-04-06T07:26:45.930Z,7.00
2023-04-06T07:27:44.974Z,5.39
2023-04-06T07:28:45.045Z,6.69
2023-04-06T07:29:44.991Z,5.74
2023-04-06T07:30:44.991Z,5.84
2023-04-06T07:31:45.074Z,6.96
2023-04-06T07:32:45.162Z,6.53
2023-04-06T07:33:45.167Z,6.53
2023-04-06T07:34:45.268Z,6.24
2023-04-06T07:35:45.403Z,6.16
2023-04-06T07:36:45.381Z,5.99
2023-04-06T07:37:45.389Z,6.71
2023-04-06T07:38:45.449Z,6.22
2023-04-06T07:39:45.456Z,6.92
2023-04-06T07:40:45.513Z,6.58
2023-04-06T07:41:45.513Z,6.40
2023-04-06T07:42:45.581Z,6.86
2023-04-06T07:43:45.663Z,5.71
2023-04-06T07:44:45.796Z,6.77
2023-04-06T07:45:45.853Z,6.72
2023-04-06T07:46:45.830Z,6.52
2023-04-06T07:47:45.900Z,6.51
2023-04-06T07:48:45.905Z,6.28
2023-04-06T07:49:45.980Z,6.51
2023-04-06T07:50:46.060Z,6.22
2023-04-06T07:51:46.095Z,6.41
2023-04-06T07:52:46.169Z,6.31
2023-04-06T07:53:46.220Z,6.24
2023-04-06T07:54:46.282Z,6.47
2023-04-06T07:55:46.402Z,6.35
2023-04-06T07:56:46.411Z,6.35
2023-04-06T07:57:46.442Z,6.36
2023-04-06T07:58:46.518Z,6.45
2023-04-06T07:59:46.624Z,6.47
2023-04-06T08:00:46.631Z,6.29
2023-04-06T08:01:46.693Z,6.15
2023-04-06T08:02:46.805Z,5.91
2023-04-06T08:03:46.889Z,6.29
2023-04-06T08:04:46.926Z,5.77
2023-04-06T08:05:46.977Z,6.18
2023-04-06T08:06:47.023Z,6.89
2023-04-06T08:07:47.073Z,6.21
2023-04-06T08:08:47.138Z,5.99
2023-04-06T08:09:47.219Z,6.62
2023-04-06T08:10:47.258Z,6.21
2023-04-06T08:11:47.303Z,6.74
2023-04-06T08:12:47.391Z,6.11
2023-04-06T08:13:47.446Z,6.65
2023-04-06T08:14:47.489Z,6.53
2023-04-06T08:15:47.633Z,6.19
2023-04-06T08:16:47.578Z,5.66
2023-04-06T08:17:47.635Z,5.71
2023-04-06T08:18:47.686Z,5.31
2023-04-06T08:19:47.686Z,6.53
2023-04-06T08:20:47.726Z,5.83
2023-04-06T08:21:47.804Z,6.11
2023-04-06T08:22:47.854Z,6.00
2023-04-06T08:23:47.870Z,6.09
2023-04-06T08:24:47.918Z,6.07
2023-04-06T08:25:47.975Z,5.91
2023-04-06T08:26:47.991Z,5.90
2023-04-06T08:27:48.090Z,5.73
2023-04-06T08:28:48.099Z,6.39
2023-04-06T08:29:48.178Z,6.17
2023-04-06T08:30:48.241Z,5.72
2023-04-06T08:31:48.238Z,5.57
2023-04-06T08:32:48.438Z,5.94
2023-04-06T08:33:48.399Z,5.94
2023-04-06T08:34:48.417Z,6.54
2023-04-06T08:35:48.486Z,5.41
2023-04-06T08:36:48.489Z,5.56
2023-04-06T08:37:48.579Z,5.80
2023-04-06T08:38:48.999Z,6.48
2023-04-06T08:39:48.657Z,5.64
2023-04-06T08:40:48.694Z,5.66
2023-04-06T08:41:48.759Z,5.84
2023-04-06T08:42:48.829Z,5.58
2023-04-06T08:43:48.887Z,5.35
2023-04-06T08:44:48.884Z,5.45
2023-04-06T08:45:48.934Z,6.12
2023-04-06T08:46:49.022Z,6.25
2023-04-06T08:47:49.104Z,5.76
2023-04-06T08:48:49.083Z,6.07
2023-04-06T08:49:49.116Z,5.50
2023-04-06T08:50:49.178Z,5.75
2023-04-06T08:51:49.242Z,5.29
2023-04-06T08:52:49.286Z,5.54
2023-04-06T08:53:49.346Z,6.07
2023-04-06T08:54:49.352Z,5.92
2023-04-06T08:55:49.397Z,5.64
2023-04-06T08:56:49.478Z,6.41
2023-04-06T08:57:49.521Z,5.57
2023-04-06T08:58:49.634Z,6.41
2023-04-06T08:59:49.651Z,5.60
2023-04-06T09:00:49.649Z,5.93
2023-04-06T09:01:49.769Z,5.81
2023-04-06T09:02:49.908Z,5.42
2023-04-06T09:03:49.896Z,5.95
2023-04-06T09:04:49.880Z,5.48
2023-04-06T09:05:49.947Z,5.68
2023-04-06T09:06:49.945Z,6.18
2023-04-06T09:07:49.994Z,5.63
2023-04-06T09:08:50.078Z,5.25
2023-04-06T09:09:50.086Z,5.26
2023-04-06T09:10:50.201Z,6.14
2023-04-06T09:11:50.221Z,5.81
2023-04-06T09:12:50.251Z,5.19
2023-04-06T09:13:50.285Z,5.53
2023-04-06T09:14:50.317Z,5.53
2023-04-06T09:15:50.385Z,5.78
2023-04-06T09:16:50.440Z,6.28
2023-04-06T09:17:50.454Z,5.32
2023-04-06T09:18:50.503Z,5.05
2023-04-06T09:19:50.549Z,5.39
2023-04-06T09:20:50.581Z,5.26
2023-04-06T09:21:50.617Z,5.84
2023-04-06T09:22:50.631Z,4.77
2023-04-06T09:23:50.724Z,5.55
2023-04-06T09:24:50.698Z,5.65
2023-04-06T09:25:50.763Z,5.30
2023-04-06T09:26:50.752Z,4.94
2023-04-06T09:27:50.808Z,5.33
2023-04-06T09:28:50.835Z,4.99
2023-04-06T09:29:50.986Z,4.89
2023-04-06T09:30:50.914Z,5.38
2023-04-06T09:31:50.978Z,5.27
2023-04-06T09:32:51.032Z,5.15
2023-04-06T09:33:51.014Z,5.43
2023-04-06T09:34:51.151Z,5.65
2023-04-06T09:35:51.105Z,5.36
2023-04-06T09:36:51.089Z,5.61
2023-04-06T09:37:51.147Z,5.72
2023-04-06T09:38:51.463Z,5.28
2023-04-06T09:39:51.236Z,5.64
2023-04-06T09:41:00.660Z,5.29
2023-04-06T09:41:52.283Z,4.96
2023-04-06T09:42:51.285Z,4.87
2023-04-06T09:43:51.301Z,5.75
2023-04-06T09:44:51.253Z,4.63
2023-04-06T09:45:51.259Z,4.71
2023-04-06T09:47:00.496Z,5.15
2023-04-06T09:47:52.573Z,5.11
2023-04-06T09:48:51.216Z,5.04
2023-04-06T09:49:51.210Z,4.39
2023-04-06T09:50:51.195Z,5.11
2023-04-06T09:51:51.169Z,4.53
2023-04-06T09:52:51.262Z,5.05
2023-04-06T09:53:51.209Z,4.88
2023-04-06T09:54:51.206Z,5.50
2023-04-06T09:55:51.178Z,4.21
2023-04-06T09:56:51.166Z,5.42
2023-04-06T09:57:51.231Z,5.12
2023-04-06T09:58:51.389Z,5.05
2023-04-06T09:59:51.364Z,4.90
2023-04-06T10:00:53.092Z,4.64
2023-04-06T10:01:51.372Z,5.17
2023-04-06T10:02:51.431Z,5.59
2023-04-06T10:03:51.441Z,5.52
2023-04-06T10:04:51.488Z,5.02
2023-04-06T10:05:51.337Z,4.73
2023-04-06T10:06:51.326Z,4.67
2023-04-06T10:08:00.230Z,4.67
2023-04-06T10:08:52.329Z,5.02
2023-04-06T10:09:51.313Z,5.17
2023-04-06T10:10:51.323Z,4.63
2023-04-06T10:11:51.340Z,4.70
2023-04-06T10:12:51.264Z,4.75
2023-04-06T10:13:51.290Z,4.57
2023-04-06T10:14:51.297Z,5.06
2023-04-06T10:15:51.249Z,4.25
2023-04-06T10:16:51.371Z,4.41
2023-04-06T10:17:51.342Z,4.33
2023-04-06T10:18:51.384Z,4.70
2023-04-06T10:19:51.490Z,4.69
2023-04-06T10:20:51.485Z,4.76
2023-04-06T10:21:51.539Z,4.72
2023-04-06T10:22:51.534Z,4.68
2023-04-06T10:23:51.615Z,4.51
2023-04-06T10:24:51.673Z,5.00
2023-04-06T10:25:51.735Z,4.70
2023-04-06T10:26:51.780Z,4.59
2023-04-06T10:27:51.848Z,4.21
2023-04-06T10:28:51.900Z,4.72
2023-04-06T10:29:51.978Z,5.39
2023-04-06T10:30:51.976Z,5.02
2023-04-06T10:31:52.070Z,4.00
2023-04-06T10:32:52.117Z,4.56
2023-04-06T10:33:52.171Z,5.03
2023-04-06T10:34:52.212Z,4.91
2023-04-06T10:35:52.306Z,4.54
2023-04-06T10:36:52.323Z,4.81
2023-04-06T10:37:52.468Z,3.74
2023-04-06T10:38:52.489Z,4.22
2023-04-06T10:39:52.544Z,4.23
2023-04-06T10:40:52.587Z,5.09
2023-04-06T10:41:52.680Z,3.80
2023-04-06T10:42:52.728Z,4.54
2023-04-06T10:43:52.832Z,4.55
2023-04-06T10:44:52.819Z,4.06
2023-04-06T10:45:52.955Z,4.71
2023-04-06T10:46:52.945Z,4.49
2023-04-06T10:47:53.015Z,4.29
2023-04-06T10:48:53.051Z,4.11
2023-04-06T10:49:53.145Z,4.62
2023-04-06T10:50:53.189Z,4.00
2023-04-06T10:51:53.261Z,4.52
2023-04-06T10:52:53.268Z,4.70
2023-04-06T10:53:53.301Z,4.48
2023-04-06T10:54:53.316Z,3.79
2023-04-06T10:55:53.377Z,4.55
2023-04-06T10:56:53.433Z,4.66
2023-04-06T10:57:53.506Z,4.01
2023-04-06T10:58:53.619Z,4.36
2023-04-06T10:59:53.622Z,4.32
2023-04-06T11:00:53.689Z,4.73
2023-04-06T11:01:53.721Z,4.45
2023-04-06T11:02:53.741Z,3.10
2023-04-06T11:03:53.785Z,4.07
2023-04-06T11:04:53.802Z,4.44
2023-04-06T11:05:53.902Z,4.36
2023-04-06T11:06:53.922Z,3.99
2023-04-06T11:07:54.023Z,4.19
2023-04-06T11:08:54.063Z,3.94
2023-04-06T11:10:12.788Z,4.04
2023-04-06T11:10:55.111Z,4.39
2023-04-06T11:11:54.108Z,3.84
2023-04-06T11:12:54.069Z,4.57
2023-04-06T11:13:54.049Z,3.77
2023-04-06T11:14:54.130Z,4.07
2023-04-06T11:15:54.082Z,3.92
2023-04-06T11:16:54.096Z,4.29
2023-04-06T11:17:54.065Z,4.35
2023-04-06T11:18:55.045Z,3.71
2023-04-06T11:19:54.053Z,4.42
2023-04-06T11:20:54.104Z,3.91
2023-04-06T11:21:54.166Z,4.35
2023-04-06T11:22:54.224Z,4.00
2023-04-06T11:23:54.289Z,3.72
2023-04-06T11:24:54.339Z,4.11
2023-04-06T11:25:54.333Z,4.55
2023-04-06T11:26:54.476Z,4.35
2023-04-06T11:27:54.458Z,4.12
2023-04-06T11:28:54.495Z,3.79
2023-04-06T11:29:54.540Z,3.72
2023-04-06T11:30:54.710Z,4.22
2023-04-06T11:31:54.700Z,4.06
2023-04-06T11:32:54.792Z,4.37
2023-04-06T11:33:54.800Z,4.20
2023-04-06T11:34:54.869Z,4.13
2023-04-06T11:35:54.946Z,3.86
2023-04-06T11:36:54.990Z,4.00
2023-04-06T11:37:55.026Z,3.74
2023-04-06T11:38:55.115Z,4.22
2023-04-06T11:39:55.177Z,4.10
2023-04-06T11:40:55.283Z,3.51
2023-04-06T11:41:55.393Z,4.18
2023-04-06T11:42:55.435Z,3.64
2023-04-06T11:43:55.450Z,4.15
2023-04-06T11:44:55.493Z,4.04
2023-04-06T11:45:55.587Z,3.89
2023-04-06T11:46:55.599Z,3.47
2023-04-06T11:47:55.720Z,4.29
2023-04-06T11:48:55.766Z,4.03
2023-04-06T11:49:55.801Z,4.24
2023-04-06T11:50:55.914Z,4.10
2023-04-06T11:51:55.915Z,3.14
2023-04-06T11:52:55.981Z,3.78
2023-04-06T11:53:56.036Z,3.66
2023-04-06T11:54:56.109Z,4.22
2023-04-06T11:55:56.181Z,3.53
2023-04-06T11:56:56.258Z,3.94
2023-04-06T11:57:56.308Z,3.85
2023-04-06T11:58:56.391Z,3.38
2023-04-06T11:59:56.496Z,3.71
2023-04-06T12:00:56.461Z,3.58
2023-04-06T12:01:56.525Z,3.31
2023-04-06T12:02:56.686Z,3.31
2023-04-06T12:03:56.749Z,3.49
2023-04-06T12:04:56.720Z,3.49
2023-04-06T12:05:58.755Z,3.54
2023-04-06T12:06:56.776Z,3.79
2023-04-06T12:07:58.062Z,3.41
2023-04-06T12:08:56.747Z,3.79
2023-04-06T12:09:56.735Z,3.42
2023-04-06T12:10:56.764Z,3.97
2023-04-06T12:11:56.729Z,3.36
2023-04-06T12:12:56.727Z,3.86
2023-04-06T12:13:56.734Z,4.23
2023-04-06T12:14:56.703Z,3.57
2023-04-06T12:15:56.763Z,4.31
2023-04-06T12:16:56.695Z,3.31
2023-04-06T12:17:56.708Z,3.40
2023-04-06T12:18:56.690Z,3.67
2023-04-06T12:20:01.848Z,3.46
2023-04-06T12:20:57.696Z,3.68
2023-04-06T12:21:56.671Z,3.65
2023-04-06T12:22:56.655Z,3.48
2023-04-06T12:23:56.650Z,3.34
2023-04-06T12:24:56.658Z,3.39
2023-04-06T12:25:56.642Z,3.44
2023-04-06T12:27:08.699Z,3.40
2023-04-06T12:27:57.646Z,3.77
2023-04-06T12:28:56.620Z,3.53
2023-04-06T12:29:56.602Z,3.79
2023-04-06T12:30:56.627Z,3.50
2023-04-06T12:31:56.609Z,3.54
2023-04-06T12:32:56.732Z,3.72
2023-04-06T12:33:56.601Z,3.43
2023-04-06T12:34:56.594Z,3.69
2023-04-06T12:35:56.652Z,3.92
2023-04-06T12:36:56.738Z,3.68
2023-04-06T12:37:56.765Z,3.54
2023-04-06T12:38:56.866Z,3.67
2023-04-06T12:39:56.905Z,3.32
2023-04-06T12:40:56.982Z,3.75
2023-04-06T12:41:57.029Z,3.54
2023-04-06T12:42:57.102Z,2.94
2023-04-06T12:43:57.187Z,3.53
2023-04-06T12:44:57.211Z,3.52
2023-04-06T12:45:57.290Z,3.58
2023-04-06T12:46:57.481Z,3.74
2023-04-06T12:47:57.490Z,3.34
2023-04-06T12:48:57.487Z,3.21
2023-04-06T12:49:57.544Z,3.24
2023-04-06T12:50:57.589Z,3.24
2023-04-06T12:51:57.608Z,2.89
2023-04-06T12:52:57.649Z,3.25
2023-04-06T12:53:57.755Z,3.18
2023-04-06T12:54:57.872Z,3.04
2023-04-06T12:55:57.927Z,2.91
2023-04-06T12:56:57.869Z,3.50
2023-04-06T12:57:57.941Z,3.36
2023-04-06T12:58:58.078Z,3.83
2023-04-06T12:59:58.146Z,2.77
2023-04-06T13:00:58.049Z,2.87
2023-04-06T13:01:58.087Z,3.48
2023-04-06T13:02:58.173Z,3.52
2023-04-06T13:03:58.169Z,2.96
2023-04-06T13:04:58.573Z,3.27
2023-04-06T13:05:58.350Z,3.13
2023-04-06T13:06:58.335Z,2.81
2023-04-06T13:07:58.369Z,2.71
2023-04-06T13:08:58.409Z,2.86
2023-04-06T13:09:58.480Z,3.27
2023-04-06T13:10:58.444Z,3.08
2023-04-06T13:11:58.489Z,2.97
2023-04-06T13:12:58.498Z,3.50
2023-04-06T13:13:58.498Z,2.90
2023-04-06T13:14:58.521Z,3.22
2023-04-06T13:15:58.529Z,3.01
2023-04-06T13:16:58.525Z,2.99
2023-04-06T13:17:58.627Z,3.37
2023-04-06T13:18:58.531Z,3.11